sensor_id;sensor_type;location;lat;lon;timestamp;P1;durP1;ratioP1;P2;durP2;ratioP2
11287;SDS011;5700;50.996;7.044;2023-02-13T00:02:38;13.70;;;5.55;;
11287;SDS011;5700;50.996;7.044;2023-02-13T00:05:40;13.35;;;5.65;;
11287;SDS011;5700;50.996;7.044;2023-02-13T00:08:41;10.20;;;4.75;;
11287;SDS011;5700;50.996;7.044;2023-02-13T00:11:42;13.70;;;5.57;;
11287;SDS011;5700;50.996;7.044;2023-02-13T00:14:45;12.00;;;5.93;;
11287;SDS011;5700;50.996;7.044;2023-02-13T00:17:46;12.18;;;5.13;;
11287;SDS011;5700;50.996;7.044;2023-02-13T00:20:55;13.63;;;5.93;;
11287;SDS011;5700;50.996;7.044;2023-02-13T00:23:57;12.27;;;5.45;;
11287;SDS011;5700;50.996;7.044;2023-02-13T00:26:59;14.45;;;5.93;;
11287;SDS011;5700;50.996;7.044;2023-02-13T00:30:02;13.15;;;5.60;;
11287;SDS011;5700;50.996;7.044;2023-02-13T00:33:03;12.23;;;5.72;;
11287;SDS011;5700;50.996;7.044;2023-02-13T00:36:05;11.43;;;5.53;;
11287;SDS011;5700;50.996;7.044;2023-02-13T00:39:08;11.80;;;5.38;;
11287;SDS011;5700;50.996;7.044;2023-02-13T00:42:11;9.77;;;5.25;;
11287;SDS011;5700;50.996;7.044;2023-02-13T00:45:13;11.52;;;5.88;;
11287;SDS011;5700;50.996;7.044;2023-02-13T00:48:15;9.82;;;4.75;;
11287;SDS011;5700;50.996;7.044;2023-02-13T00:51:16;11.40;;;5.45;;
11287;SDS011;5700;50.996;7.044;2023-02-13T00:54:18;12.05;;;5.07;;
11287;SDS011;5700;50.996;7.044;2023-02-13T00:57:19;12.85;;;5.40;;
11287;SDS011;5700;50.996;7.044;2023-02-13T01:00:22;12.45;;;6.35;;
11287;SDS011;5700;50.996;7.044;2023-02-13T01:03:23;13.00;;;5.53;;
11287;SDS011;5700;50.996;7.044;2023-02-13T01:06:25;10.70;;;5.32;;
11287;SDS011;5700;50.996;7.044;2023-02-13T01:09:26;10.57;;;5.45;;
11287;SDS011;5700;50.996;7.044;2023-02-13T01:12:28;12.63;;;5.88;;
11287;SDS011;5700;50.996;7.044;2023-02-13T01:15:30;10.77;;;5.00;;
11287;SDS011;5700;50.996;7.044;2023-02-13T01:18:32;14.52;;;5.80;;
11287;SDS011;5700;50.996;7.044;2023-02-13T01:21:33;11.23;;;5.38;;
11287;SDS011;5700;50.996;7.044;2023-02-13T01:24:35;11.38;;;5.57;;
11287;SDS011;5700;50.996;7.044;2023-02-13T01:27:36;11.68;;;5.28;;
11287;SDS011;5700;50.996;7.044;2023-02-13T01:30:39;12.95;;;5.32;;
11287;SDS011;5700;50.996;7.044;2023-02-13T01:33:41;13.65;;;5.57;;
11287;SDS011;5700;50.996;7.044;2023-02-13T01:36:42;11.48;;;5.03;;
11287;SDS011;5700;50.996;7.044;2023-02-13T01:39:43;10.50;;;4.65;;
11287;SDS011;5700;50.996;7.044;2023-02-13T01:42:45;13.13;;;5.40;;
11287;SDS011;5700;50.996;7.044;2023-02-13T01:45:48;9.27;;;4.60;;
11287;SDS011;5700;50.996;7.044;2023-02-13T01:48:52;9.98;;;4.68;;
11287;SDS011;5700;50.996;7.044;2023-02-13T01:51:56;10.90;;;5.05;;
11287;SDS011;5700;50.996;7.044;2023-02-13T01:54:58;10.32;;;4.60;;
11287;SDS011;5700;50.996;7.044;2023-02-13T01:58:00;13.25;;;5.53;;
11287;SDS011;5700;50.996;7.044;2023-02-13T02:01:06;10.63;;;4.95;;
11287;SDS011;5700;50.996;7.044;2023-02-13T02:04:09;11.60;;;4.82;;
11287;SDS011;5700;50.996;7.044;2023-02-13T02:07:13;11.43;;;4.63;;
11287;SDS011;5700;50.996;7.044;2023-02-13T02:10:18;11.10;;;4.75;;
11287;SDS011;5700;50.996;7.044;2023-02-13T02:13:20;10.38;;;4.95;;
11287;SDS011;5700;50.996;7.044;2023-02-13T02:16:23;10.85;;;5.00;;
11287;SDS011;5700;50.996;7.044;2023-02-13T02:19:27;10.80;;;4.80;;
11287;SDS011;5700;50.996;7.044;2023-02-13T02:22:41;9.98;;;4.78;;
11287;SDS011;5700;50.996;7.044;2023-02-13T02:25:58;9.15;;;4.60;;
11287;SDS011;5700;50.996;7.044;2023-02-13T02:32:38;9.55;;;4.75;;
11287;SDS011;5700;50.996;7.044;2023-02-13T02:35:46;11.52;;;5.00;;
11287;SDS011;5700;50.996;7.044;2023-02-13T02:38:57;9.43;;;4.22;;
11287;SDS011;5700;50.996;7.044;2023-02-13T02:42:07;9.80;;;4.90;;
11287;SDS011;5700;50.996;7.044;2023-02-13T02:45:21;9.88;;;4.35;;
11287;SDS011;5700;50.996;7.044;2023-02-13T02:48:27;11.45;;;4.75;;
11287;SDS011;5700;50.996;7.044;2023-02-13T02:51:46;9.07;;;4.65;;
11287;SDS011;5700;50.996;7.044;2023-02-13T02:54:52;11.77;;;5.03;;
11287;SDS011;5700;50.996;7.044;2023-02-13T02:58:08;9.95;;;4.97;;
11287;SDS011;5700;50.996;7.044;2023-02-13T03:01:28;10.32;;;4.22;;
11287;SDS011;5700;50.996;7.044;2023-02-13T03:04:46;10.68;;;5.38;;
11287;SDS011;5700;50.996;7.044;2023-02-13T03:08:04;10.02;;;4.38;;
11287;SDS011;5700;50.996;7.044;2023-02-13T03:11:06;10.02;;;4.95;;
11287;SDS011;5700;50.996;7.044;2023-02-13T03:14:23;10.48;;;5.15;;
11287;SDS011;5700;50.996;7.044;2023-02-13T03:17:26;11.10;;;5.80;;
11287;SDS011;5700;50.996;7.044;2023-02-13T03:20:45;11.77;;;5.32;;
11287;SDS011;5700;50.996;7.044;2023-02-13T03:24:02;10.93;;;5.22;;
11287;SDS011;5700;50.996;7.044;2023-02-13T03:27:08;10.68;;;5.43;;
11287;SDS011;5700;50.996;7.044;2023-02-13T03:30:15;10.93;;;5.30;;
11287;SDS011;5700;50.996;7.044;2023-02-13T03:33:23;12.00;;;5.53;;
11287;SDS011;5700;50.996;7.044;2023-02-13T03:36:36;13.02;;;5.65;;
11287;SDS011;5700;50.996;7.044;2023-02-13T03:39:59;8.95;;;4.65;;
11287;SDS011;5700;50.996;7.044;2023-02-13T03:43:05;10.43;;;4.75;;
11287;SDS011;5700;50.996;7.044;2023-02-13T03:46:09;7.85;;;4.55;;
11287;SDS011;5700;50.996;7.044;2023-02-13T03:49:12;12.45;;;5.43;;
11287;SDS011;5700;50.996;7.044;2023-02-13T03:52:34;9.68;;;4.90;;
11287;SDS011;5700;50.996;7.044;2023-02-13T03:55:40;9.55;;;4.72;;
11287;SDS011;5700;50.996;7.044;2023-02-13T03:58:57;10.63;;;5.25;;
11287;SDS011;5700;50.996;7.044;2023-02-13T04:02:14;9.88;;;4.97;;
11287;SDS011;5700;50.996;7.044;2023-02-13T04:05:17;9.70;;;5.10;;
11287;SDS011;5700;50.996;7.044;2023-02-13T04:08:22;10.25;;;5.15;;
11287;SDS011;5700;50.996;7.044;2023-02-13T04:11:24;10.40;;;5.43;;
11287;SDS011;5700;50.996;7.044;2023-02-13T04:14:32;11.05;;;5.60;;
11287;SDS011;5700;50.996;7.044;2023-02-13T04:17:37;12.02;;;5.47;;
11287;SDS011;5700;50.996;7.044;2023-02-13T04:20:39;10.90;;;5.72;;
11287;SDS011;5700;50.996;7.044;2023-02-13T04:23:42;12.35;;;5.53;;
11287;SDS011;5700;50.996;7.044;2023-02-13T04:26:43;10.57;;;5.80;;
11287;SDS011;5700;50.996;7.044;2023-02-13T04:29:45;13.38;;;5.63;;
11287;SDS011;5700;50.996;7.044;2023-02-13T04:32:47;11.38;;;5.53;;
11287;SDS011;5700;50.996;7.044;2023-02-13T04:35:48;12.43;;;5.63;;
11287;SDS011;5700;50.996;7.044;2023-02-13T04:38:51;9.63;;;5.28;;
11287;SDS011;5700;50.996;7.044;2023-02-13T04:41:52;11.80;;;5.78;;
11287;SDS011;5700;50.996;7.044;2023-02-13T04:44:54;12.85;;;5.75;;
11287;SDS011;5700;50.996;7.044;2023-02-13T04:47:55;11.55;;;5.53;;
11287;SDS011;5700;50.996;7.044;2023-02-13T04:50:57;13.30;;;6.50;;
11287;SDS011;5700;50.996;7.044;2023-02-13T04:54:00;11.73;;;5.90;;
11287;SDS011;5700;50.996;7.044;2023-02-13T04:57:01;14.32;;;6.82;;
11287;SDS011;5700;50.996;7.044;2023-02-13T05:00:04;11.25;;;4.72;;
11287;SDS011;5700;50.996;7.044;2023-02-13T05:03:08;12.23;;;5.63;;
11287;SDS011;5700;50.996;7.044;2023-02-13T05:06:10;11.75;;;6.05;;
11287;SDS011;5700;50.996;7.044;2023-02-13T05:09:13;10.80;;;6.00;;
11287;SDS011;5700;50.996;7.044;2023-02-13T05:12:15;11.55;;;6.03;;
11287;SDS011;5700;50.996;7.044;2023-02-13T05:15:16;11.38;;;6.10;;
11287;SDS011;5700;50.996;7.044;2023-02-13T05:18:18;9.85;;;5.32;;
11287;SDS011;5700;50.996;7.044;2023-02-13T05:21:19;12.05;;;5.13;;
11287;SDS011;5700;50.996;7.044;2023-02-13T05:24:36;13.07;;;5.53;;
11287;SDS011;5700;50.996;7.044;2023-02-13T05:27:37;11.05;;;5.93;;
11287;SDS011;5700;50.996;7.044;2023-02-13T05:30:38;10.77;;;4.57;;
11287;SDS011;5700;50.996;7.044;2023-02-13T05:33:40;10.60;;;4.85;;
11287;SDS011;5700;50.996;7.044;2023-02-13T05:36:41;10.50;;;5.32;;
11287;SDS011;5700;50.996;7.044;2023-02-13T05:39:44;12.48;;;5.53;;
11287;SDS011;5700;50.996;7.044;2023-02-13T05:42:45;10.50;;;5.40;;
11287;SDS011;5700;50.996;7.044;2023-02-13T05:45:47;12.23;;;5.78;;
11287;SDS011;5700;50.996;7.044;2023-02-13T05:48:48;13.27;;;6.15;;
11287;SDS011;5700;50.996;7.044;2023-02-13T05:51:50;11.88;;;5.30;;
11287;SDS011;5700;50.996;7.044;2023-02-13T05:54:53;12.13;;;5.57;;
11287;SDS011;5700;50.996;7.044;2023-02-13T05:57:54;11.73;;;5.82;;
11287;SDS011;5700;50.996;7.044;2023-02-13T06:00:56;12.30;;;5.97;;
11287;SDS011;5700;50.996;7.044;2023-02-13T06:03:58;12.68;;;6.40;;
11287;SDS011;5700;50.996;7.044;2023-02-13T06:07:00;13.40;;;5.88;;
11287;SDS011;5700;50.996;7.044;2023-02-13T06:10:02;12.25;;;5.93;;
11287;SDS011;5700;50.996;7.044;2023-02-13T06:13:04;13.55;;;5.88;;
11287;SDS011;5700;50.996;7.044;2023-02-13T06:16:05;12.30;;;5.80;;
11287;SDS011;5700;50.996;7.044;2023-02-13T06:19:07;12.43;;;5.75;;
11287;SDS011;5700;50.996;7.044;2023-02-13T06:22:09;11.93;;;5.53;;
11287;SDS011;5700;50.996;7.044;2023-02-13T06:25:12;15.27;;;6.00;;
11287;SDS011;5700;50.996;7.044;2023-02-13T06:28:14;14.00;;;6.63;;
11287;SDS011;5700;50.996;7.044;2023-02-13T06:31:15;12.05;;;6.25;;
11287;SDS011;5700;50.996;7.044;2023-02-13T06:34:16;12.05;;;6.22;;
11287;SDS011;5700;50.996;7.044;2023-02-13T06:37:18;14.50;;;6.35;;
11287;SDS011;5700;50.996;7.044;2023-02-13T06:40:20;14.52;;;6.40;;
11287;SDS011;5700;50.996;7.044;2023-02-13T06:43:22;12.18;;;6.18;;
11287;SDS011;5700;50.996;7.044;2023-02-13T06:46:23;13.88;;;6.47;;
11287;SDS011;5700;50.996;7.044;2023-02-13T06:49:24;14.38;;;6.80;;
11287;SDS011;5700;50.996;7.044;2023-02-13T06:52:26;13.23;;;5.75;;
11287;SDS011;5700;50.996;7.044;2023-02-13T06:55:30;12.65;;;5.75;;
11287;SDS011;5700;50.996;7.044;2023-02-13T06:58:32;13.32;;;7.15;;
11287;SDS011;5700;50.996;7.044;2023-02-13T07:01:33;13.25;;;5.95;;
11287;SDS011;5700;50.996;7.044;2023-02-13T07:04:35;13.60;;;6.05;;
11287;SDS011;5700;50.996;7.044;2023-02-13T07:07:37;13.60;;;6.47;;
11287;SDS011;5700;50.996;7.044;2023-02-13T07:10:41;11.88;;;5.95;;
11287;SDS011;5700;50.996;7.044;2023-02-13T07:13:42;12.60;;;5.65;;
11287;SDS011;5700;50.996;7.044;2023-02-13T07:16:44;15.57;;;6.60;;
11287;SDS011;5700;50.996;7.044;2023-02-13T07:19:45;14.18;;;6.45;;
11287;SDS011;5700;50.996;7.044;2023-02-13T07:22:46;17.25;;;7.38;;
11287;SDS011;5700;50.996;7.044;2023-02-13T07:25:49;14.20;;;6.38;;
11287;SDS011;5700;50.996;7.044;2023-02-13T07:28:50;17.45;;;6.75;;
11287;SDS011;5700;50.996;7.044;2023-02-13T07:31:52;15.27;;;6.88;;
11287;SDS011;5700;50.996;7.044;2023-02-13T07:34:53;14.65;;;6.88;;
11287;SDS011;5700;50.996;7.044;2023-02-13T07:37:55;13.95;;;7.03;;
11287;SDS011;5700;50.996;7.044;2023-02-13T07:40:58;13.82;;;7.30;;
11287;SDS011;5700;50.996;7.044;2023-02-13T07:44:00;14.80;;;7.10;;
11287;SDS011;5700;50.996;7.044;2023-02-13T07:47:01;17.27;;;7.65;;
11287;SDS011;5700;50.996;7.044;2023-02-13T07:50:03;13.65;;;6.78;;
11287;SDS011;5700;50.996;7.044;2023-02-13T07:53:05;16.63;;;7.78;;
11287;SDS011;5700;50.996;7.044;2023-02-13T07:56:08;15.00;;;6.70;;
11287;SDS011;5700;50.996;7.044;2023-02-13T07:59:10;15.85;;;7.07;;
11287;SDS011;5700;50.996;7.044;2023-02-13T08:02:12;16.23;;;7.28;;
11287;SDS011;5700;50.996;7.044;2023-02-13T08:05:14;14.27;;;7.25;;
11287;SDS011;5700;50.996;7.044;2023-02-13T08:08:15;14.02;;;6.97;;
11287;SDS011;5700;50.996;7.044;2023-02-13T08:11:21;14.40;;;7.00;;
11287;SDS011;5700;50.996;7.044;2023-02-13T08:14:38;15.05;;;7.25;;
11287;SDS011;5700;50.996;7.044;2023-02-13T08:17:40;16.63;;;7.88;;
11287;SDS011;5700;50.996;7.044;2023-02-13T08:20:41;15.55;;;6.88;;
11287;SDS011;5700;50.996;7.044;2023-02-13T08:23:42;17.15;;;6.90;;
11287;SDS011;5700;50.996;7.044;2023-02-13T08:26:45;15.20;;;7.10;;
11287;SDS011;5700;50.996;7.044;2023-02-13T08:29:47;14.57;;;7.25;;
11287;SDS011;5700;50.996;7.044;2023-02-13T08:32:49;12.75;;;6.32;;
11287;SDS011;5700;50.996;7.044;2023-02-13T08:35:50;13.10;;;6.20;;
11287;SDS011;5700;50.996;7.044;2023-02-13T08:38:51;14.50;;;6.65;;
11287;SDS011;5700;50.996;7.044;2023-02-13T08:41:54;14.30;;;6.68;;
11287;SDS011;5700;50.996;7.044;2023-02-13T08:44:55;11.35;;;6.00;;
11287;SDS011;5700;50.996;7.044;2023-02-13T08:47:57;12.55;;;6.40;;
11287;SDS011;5700;50.996;7.044;2023-02-13T08:50:59;12.38;;;5.95;;
11287;SDS011;5700;50.996;7.044;2023-02-13T08:54:05;12.15;;;6.03;;
11287;SDS011;5700;50.996;7.044;2023-02-13T08:57:08;13.82;;;6.28;;
11287;SDS011;5700;50.996;7.044;2023-02-13T09:00:10;12.25;;;5.78;;
11287;SDS011;5700;50.996;7.044;2023-02-13T09:03:12;12.50;;;5.25;;
11287;SDS011;5700;50.996;7.044;2023-02-13T09:06:13;12.30;;;5.47;;
11287;SDS011;5700;50.996;7.044;2023-02-13T09:09:14;11.18;;;5.25;;
11287;SDS011;5700;50.996;7.044;2023-02-13T09:12:17;10.65;;;5.07;;
11287;SDS011;5700;50.996;7.044;2023-02-13T09:15:19;12.20;;;5.05;;
11287;SDS011;5700;50.996;7.044;2023-02-13T09:18:20;11.30;;;5.65;;
11287;SDS011;5700;50.996;7.044;2023-02-13T09:21:21;11.05;;;5.30;;
11287;SDS011;5700;50.996;7.044;2023-02-13T09:24:23;11.93;;;5.25;;
11287;SDS011;5700;50.996;7.044;2023-02-13T09:27:26;14.27;;;5.38;;
11287;SDS011;5700;50.996;7.044;2023-02-13T09:30:27;9.57;;;4.70;;
11287;SDS011;5700;50.996;7.044;2023-02-13T09:33:29;10.40;;;4.90;;
11287;SDS011;5700;50.996;7.044;2023-02-13T09:36:30;12.45;;;5.05;;
11287;SDS011;5700;50.996;7.044;2023-02-13T09:39:32;9.68;;;4.38;;
11287;SDS011;5700;50.996;7.044;2023-02-13T09:42:35;9.50;;;5.22;;
11287;SDS011;5700;50.996;7.044;2023-02-13T09:45:36;10.60;;;5.03;;
11287;SDS011;5700;50.996;7.044;2023-02-13T09:48:39;9.50;;;4.70;;
11287;SDS011;5700;50.996;7.044;2023-02-13T09:51:43;9.52;;;4.63;;
11287;SDS011;5700;50.996;7.044;2023-02-13T09:54:45;9.10;;;4.40;;
11287;SDS011;5700;50.996;7.044;2023-02-13T09:57:50;9.23;;;4.72;;
11287;SDS011;5700;50.996;7.044;2023-02-13T10:00:54;8.07;;;4.30;;
11287;SDS011;5700;50.996;7.044;2023-02-13T10:04:06;12.45;;;5.10;;
11287;SDS011;5700;50.996;7.044;2023-02-13T10:07:17;7.25;;;3.72;;
11287;SDS011;5700;50.996;7.044;2023-02-13T10:10:26;8.68;;;4.35;;
11287;SDS011;5700;50.996;7.044;2023-02-13T10:13:45;9.85;;;4.28;;
11287;SDS011;5700;50.996;7.044;2023-02-13T10:16:52;9.48;;;4.57;;
11287;SDS011;5700;50.996;7.044;2023-02-13T10:19:56;11.07;;;4.85;;
11287;SDS011;5700;50.996;7.044;2023-02-13T10:23:02;8.90;;;4.40;;
11287;SDS011;5700;50.996;7.044;2023-02-13T10:26:15;8.98;;;4.10;;
11287;SDS011;5700;50.996;7.044;2023-02-13T10:29:22;8.10;;;3.80;;
11287;SDS011;5700;50.996;7.044;2023-02-13T10:32:42;8.55;;;4.00;;
11287;SDS011;5700;50.996;7.044;2023-02-13T10:35:48;8.77;;;4.18;;
11287;SDS011;5700;50.996;7.044;2023-02-13T10:38:54;8.98;;;4.13;;
11287;SDS011;5700;50.996;7.044;2023-02-13T10:41:59;10.13;;;4.75;;
11287;SDS011;5700;50.996;7.044;2023-02-13T10:45:13;10.00;;;3.80;;
11287;SDS011;5700;50.996;7.044;2023-02-13T10:48:28;7.55;;;4.03;;
11287;SDS011;5700;50.996;7.044;2023-02-13T10:51:39;9.02;;;4.05;;
11287;SDS011;5700;50.996;7.044;2023-02-13T10:54:50;8.30;;;4.00;;
11287;SDS011;5700;50.996;7.044;2023-02-13T10:58:03;9.68;;;4.35;;
11287;SDS011;5700;50.996;7.044;2023-02-13T11:01:12;9.68;;;4.45;;
11287;SDS011;5700;50.996;7.044;2023-02-13T11:04:17;8.68;;;3.90;;
11287;SDS011;5700;50.996;7.044;2023-02-13T11:07:20;9.02;;;3.60;;
11287;SDS011;5700;50.996;7.044;2023-02-13T11:10:25;7.75;;;3.50;;
11287;SDS011;5700;50.996;7.044;2023-02-13T11:13:27;7.75;;;3.65;;
11287;SDS011;5700;50.996;7.044;2023-02-13T11:16:32;7.97;;;3.88;;
11287;SDS011;5700;50.996;7.044;2023-02-13T11:19:45;10.02;;;3.92;;
11287;SDS011;5700;50.996;7.044;2023-02-13T11:22:50;7.30;;;3.40;;
11287;SDS011;5700;50.996;7.044;2023-02-13T11:25:52;8.35;;;3.97;;
11287;SDS011;5700;50.996;7.044;2023-02-13T11:28:56;8.90;;;3.65;;
11287;SDS011;5700;50.996;7.044;2023-02-13T11:32:04;7.68;;;3.50;;
11287;SDS011;5700;50.996;7.044;2023-02-13T11:38:28;6.95;;;3.28;;
11287;SDS011;5700;50.996;7.044;2023-02-13T11:41:30;8.48;;;3.42;;
11287;SDS011;5700;50.996;7.044;2023-02-13T11:44:32;6.80;;;3.13;;
11287;SDS011;5700;50.996;7.044;2023-02-13T11:47:36;7.97;;;3.28;;
11287;SDS011;5700;50.996;7.044;2023-02-13T11:50:39;8.30;;;3.28;;
11287;SDS011;5700;50.996;7.044;2023-02-13T11:53:52;7.88;;;3.10;;
11287;SDS011;5700;50.996;7.044;2023-02-13T11:56:58;5.75;;;2.85;;
11287;SDS011;5700;50.996;7.044;2023-02-13T12:00:27;6.43;;;3.08;;
11287;SDS011;5700;50.996;7.044;2023-02-13T12:03:32;6.15;;;3.33;;
11287;SDS011;5700;50.996;7.044;2023-02-13T12:06:35;6.18;;;2.85;;
11287;SDS011;5700;50.996;7.044;2023-02-13T12:09:39;4.43;;;2.58;;
11287;SDS011;5700;50.996;7.044;2023-02-13T12:12:41;6.22;;;2.92;;
11287;SDS011;5700;50.996;7.044;2023-02-13T12:15:46;7.88;;;3.50;;
11287;SDS011;5700;50.996;7.044;2023-02-13T12:18:59;6.70;;;3.15;;
11287;SDS011;5700;50.996;7.044;2023-02-13T12:25:25;5.25;;;2.58;;
11287;SDS011;5700;50.996;7.044;2023-02-13T12:28:35;5.30;;;2.80;;
11287;SDS011;5700;50.996;7.044;2023-02-13T12:31:47;6.22;;;2.58;;
11287;SDS011;5700;50.996;7.044;2023-02-13T12:35:00;4.88;;;2.30;;
11287;SDS011;5700;50.996;7.044;2023-02-13T12:38:24;6.30;;;2.50;;
11287;SDS011;5700;50.996;7.044;2023-02-13T12:41:35;4.78;;;2.70;;
11287;SDS011;5700;50.996;7.044;2023-02-13T12:44:43;6.40;;;2.80;;
11287;SDS011;5700;50.996;7.044;2023-02-13T12:47:58;6.38;;;2.60;;
11287;SDS011;5700;50.996;7.044;2023-02-13T12:51:09;4.47;;;2.35;;
11287;SDS011;5700;50.996;7.044;2023-02-13T12:54:25;4.57;;;1.83;;
11287;SDS011;5700;50.996;7.044;2023-02-13T12:57:37;4.68;;;2.17;;
11287;SDS011;5700;50.996;7.044;2023-02-13T13:00:48;4.28;;;2.20;;
11287;SDS011;5700;50.996;7.044;2023-02-13T13:03:59;5.28;;;2.15;;
11287;SDS011;5700;50.996;7.044;2023-02-13T13:07:12;4.30;;;2.10;;
11287;SDS011;5700;50.996;7.044;2023-02-13T13:10:26;4.72;;;2.20;;
11287;SDS011;5700;50.996;7.044;2023-02-13T13:13:38;3.90;;;1.83;;
11287;SDS011;5700;50.996;7.044;2023-02-13T13:16:46;2.67;;;1.33;;
11287;SDS011;5700;50.996;7.044;2023-02-13T13:19:55;4.07;;;1.52;;
11287;SDS011;5700;50.996;7.044;2023-02-13T13:23:06;3.35;;;1.63;;
11287;SDS011;5700;50.996;7.044;2023-02-13T13:26:13;2.92;;;1.75;;
11287;SDS011;5700;50.996;7.044;2023-02-13T13:29:21;2.95;;;1.40;;
11287;SDS011;5700;50.996;7.044;2023-02-13T13:32:23;3.28;;;1.42;;
11287;SDS011;5700;50.996;7.044;2023-02-13T13:35:26;2.20;;;1.33;;
11287;SDS011;5700;50.996;7.044;2023-02-13T13:38:33;2.83;;;1.30;;
11287;SDS011;5700;50.996;7.044;2023-02-13T13:41:40;3.50;;;1.75;;
11287;SDS011;5700;50.996;7.044;2023-02-13T13:44:48;3.83;;;1.90;;
11287;SDS011;5700;50.996;7.044;2023-02-13T13:47:59;4.38;;;1.52;;
11287;SDS011;5700;50.996;7.044;2023-02-13T13:51:06;4.28;;;1.70;;
11287;SDS011;5700;50.996;7.044;2023-02-13T14:07:40;2.25;;;1.10;;
11287;SDS011;5700;50.996;7.044;2023-02-13T14:20:58;1.80;;;0.90;;
11287;SDS011;5700;50.996;7.044;2023-02-13T14:24:00;1.30;;;0.77;;
11287;SDS011;5700;50.996;7.044;2023-02-13T14:27:03;2.38;;;1.20;;
11287;SDS011;5700;50.996;7.044;2023-02-13T14:30:05;1.85;;;1.02;;
11287;SDS011;5700;50.996;7.044;2023-02-13T14:33:24;3.22;;;0.98;;
11287;SDS011;5700;50.996;7.044;2023-02-13T14:36:27;3.97;;;1.13;;
11287;SDS011;5700;50.996;7.044;2023-02-13T14:39:32;1.70;;;0.93;;
11287;SDS011;5700;50.996;7.044;2023-02-13T14:42:35;1.67;;;0.80;;
11287;SDS011;5700;50.996;7.044;2023-02-13T14:45:40;2.67;;;1.10;;
11287;SDS011;5700;50.996;7.044;2023-02-13T14:48:50;2.00;;;1.10;;
11287;SDS011;5700;50.996;7.044;2023-02-13T14:51:54;1.63;;;1.00;;
11287;SDS011;5700;50.996;7.044;2023-02-13T14:54:57;1.92;;;0.98;;
11287;SDS011;5700;50.996;7.044;2023-02-13T14:58:03;0.70;;;0.70;;
11287;SDS011;5700;50.996;7.044;2023-02-13T15:01:14;1.48;;;0.70;;
11287;SDS011;5700;50.996;7.044;2023-02-13T15:04:25;1.13;;;0.80;;
11287;SDS011;5700;50.996;7.044;2023-02-13T15:07:31;3.75;;;1.23;;
11287;SDS011;5700;50.996;7.044;2023-02-13T15:10:35;2.88;;;1.02;;
11287;SDS011;5700;50.996;7.044;2023-02-13T15:13:41;2.38;;;0.90;;
11287;SDS011;5700;50.996;7.044;2023-02-13T15:16:42;1.08;;;0.60;;
11287;SDS011;5700;50.996;7.044;2023-02-13T15:19:48;1.95;;;0.80;;
11287;SDS011;5700;50.996;7.044;2023-02-13T15:22:50;0.80;;;0.70;;
11287;SDS011;5700;50.996;7.044;2023-02-13T15:25:56;1.13;;;0.63;;
11287;SDS011;5700;50.996;7.044;2023-02-13T15:28:58;1.75;;;0.80;;
11287;SDS011;5700;50.996;7.044;2023-02-13T15:32:02;0.80;;;0.60;;
11287;SDS011;5700;50.996;7.044;2023-02-13T15:35:21;0.47;;;0.47;;
11287;SDS011;5700;50.996;7.044;2023-02-13T15:38:25;1.88;;;0.90;;
11287;SDS011;5700;50.996;7.044;2023-02-13T15:41:28;1.23;;;0.70;;
11287;SDS011;5700;50.996;7.044;2023-02-13T15:44:33;5.07;;;0.95;;
11287;SDS011;5700;50.996;7.044;2023-02-13T15:47:35;1.70;;;0.88;;
11287;SDS011;5700;50.996;7.044;2023-02-13T15:50:38;1.73;;;0.80;;
11287;SDS011;5700;50.996;7.044;2023-02-13T15:53:48;2.40;;;0.98;;
11287;SDS011;5700;50.996;7.044;2023-02-13T15:56:51;1.90;;;1.20;;
11287;SDS011;5700;50.996;7.044;2023-02-13T15:59:54;1.80;;;0.85;;
11287;SDS011;5700;50.996;7.044;2023-02-13T16:02:56;1.60;;;0.90;;
11287;SDS011;5700;50.996;7.044;2023-02-13T16:05:59;0.93;;;0.75;;
11287;SDS011;5700;50.996;7.044;2023-02-13T16:09:01;2.58;;;0.95;;
11287;SDS011;5700;50.996;7.044;2023-02-13T16:12:03;1.38;;;1.08;;
11287;SDS011;5700;50.996;7.044;2023-02-13T16:15:06;2.17;;;0.80;;
11287;SDS011;5700;50.996;7.044;2023-02-13T16:18:16;14.13;;;1.85;;
11287;SDS011;5700;50.996;7.044;2023-02-13T16:21:21;2.80;;;1.13;;
11287;SDS011;5700;50.996;7.044;2023-02-13T16:24:23;2.60;;;1.40;;
11287;SDS011;5700;50.996;7.044;2023-02-13T16:27:26;2.22;;;0.82;;
11287;SDS011;5700;50.996;7.044;2023-02-13T16:30:29;2.58;;;0.90;;
11287;SDS011;5700;50.996;7.044;2023-02-13T16:33:32;2.40;;;0.95;;
11287;SDS011;5700;50.996;7.044;2023-02-13T16:36:35;0.77;;;0.70;;
11287;SDS011;5700;50.996;7.044;2023-02-13T16:39:37;1.42;;;0.73;;
11287;SDS011;5700;50.996;7.044;2023-02-13T16:42:38;0.88;;;0.68;;
11287;SDS011;5700;50.996;7.044;2023-02-13T16:45:40;3.60;;;1.10;;
11287;SDS011;5700;50.996;7.044;2023-02-13T16:48:41;1.73;;;0.85;;
11287;SDS011;5700;50.996;7.044;2023-02-13T16:51:45;2.95;;;1.40;;
11287;SDS011;5700;50.996;7.044;2023-02-13T16:54:50;1.67;;;1.20;;
11287;SDS011;5700;50.996;7.044;2023-02-13T16:57:59;1.83;;;1.20;;
11287;SDS011;5700;50.996;7.044;2023-02-13T17:01:01;1.48;;;1.00;;
11287;SDS011;5700;50.996;7.044;2023-02-13T17:04:06;3.78;;;1.00;;
11287;SDS011;5700;50.996;7.044;2023-02-13T17:07:18;1.65;;;1.05;;
11287;SDS011;5700;50.996;7.044;2023-02-13T17:10:22;2.60;;;1.30;;
11287;SDS011;5700;50.996;7.044;2023-02-13T17:13:26;1.33;;;1.15;;
11287;SDS011;5700;50.996;7.044;2023-02-13T17:16:28;1.10;;;0.80;;
11287;SDS011;5700;50.996;7.044;2023-02-13T17:19:29;3.40;;;0.90;;
11287;SDS011;5700;50.996;7.044;2023-02-13T17:22:33;2.13;;;1.02;;
11287;SDS011;5700;50.996;7.044;2023-02-13T17:25:36;3.17;;;1.60;;
11287;SDS011;5700;50.996;7.044;2023-02-13T17:28:38;2.63;;;0.93;;
11287;SDS011;5700;50.996;7.044;2023-02-13T17:31:40;2.67;;;1.23;;
11287;SDS011;5700;50.996;7.044;2023-02-13T17:34:41;2.90;;;1.10;;
11287;SDS011;5700;50.996;7.044;2023-02-13T17:37:46;2.67;;;0.90;;
11287;SDS011;5700;50.996;7.044;2023-02-13T17:40:48;1.60;;;1.10;;
11287;SDS011;5700;50.996;7.044;2023-02-13T17:43:50;2.03;;;1.00;;
11287;SDS011;5700;50.996;7.044;2023-02-13T17:46:52;1.80;;;0.85;;
11287;SDS011;5700;50.996;7.044;2023-02-13T17:49:54;7.28;;;1.27;;
11287;SDS011;5700;50.996;7.044;2023-02-13T17:52:56;2.00;;;1.38;;
11287;SDS011;5700;50.996;7.044;2023-02-13T17:55:59;4.80;;;1.20;;
11287;SDS011;5700;50.996;7.044;2023-02-13T17:59:00;3.00;;;1.10;;
11287;SDS011;5700;50.996;7.044;2023-02-13T18:02:02;1.73;;;1.20;;
11287;SDS011;5700;50.996;7.044;2023-02-13T18:05:04;1.98;;;0.95;;
11287;SDS011;5700;50.996;7.044;2023-02-13T18:08:07;2.85;;;1.10;;
11287;SDS011;5700;50.996;7.044;2023-02-13T18:11:09;3.45;;;1.08;;
11287;SDS011;5700;50.996;7.044;2023-02-13T18:14:11;2.30;;;1.50;;
11287;SDS011;5700;50.996;7.044;2023-02-13T18:17:12;1.70;;;0.90;;
11287;SDS011;5700;50.996;7.044;2023-02-13T18:20:15;2.88;;;1.33;;
11287;SDS011;5700;50.996;7.044;2023-02-13T18:23:20;1.73;;;1.02;;
11287;SDS011;5700;50.996;7.044;2023-02-13T18:26:21;1.83;;;1.05;;
11287;SDS011;5700;50.996;7.044;2023-02-13T18:29:23;1.27;;;0.80;;
11287;SDS011;5700;50.996;7.044;2023-02-13T18:32:25;3.50;;;1.60;;
11287;SDS011;5700;50.996;7.044;2023-02-13T18:35:27;2.88;;;1.30;;
11287;SDS011;5700;50.996;7.044;2023-02-13T18:38:30;2.85;;;1.60;;
11287;SDS011;5700;50.996;7.044;2023-02-13T18:41:31;2.47;;;1.05;;
11287;SDS011;5700;50.996;7.044;2023-02-13T18:44:33;4.90;;;1.13;;
11287;SDS011;5700;50.996;7.044;2023-02-13T18:47:34;2.25;;;1.08;;
11287;SDS011;5700;50.996;7.044;2023-02-13T18:50:37;2.50;;;1.30;;
11287;SDS011;5700;50.996;7.044;2023-02-13T18:53:41;2.63;;;1.10;;
11287;SDS011;5700;50.996;7.044;2023-02-13T18:56:43;1.95;;;1.23;;
11287;SDS011;5700;50.996;7.044;2023-02-13T18:59:44;7.00;;;2.08;;
11287;SDS011;5700;50.996;7.044;2023-02-13T19:02:46;1.70;;;1.10;;
11287;SDS011;5700;50.996;7.044;2023-02-13T19:05:47;3.03;;;1.45;;
11287;SDS011;5700;50.996;7.044;2023-02-13T19:08:50;6.82;;;3.65;;
11287;SDS011;5700;50.996;7.044;2023-02-13T19:11:51;17.40;;;5.65;;
11287;SDS011;5700;50.996;7.044;2023-02-13T19:14:53;5.13;;;1.90;;
11287;SDS011;5700;50.996;7.044;2023-02-13T19:17:54;3.33;;;1.75;;